Lynn, MA (01902)

2:21 PM EDT on September 03, 2015 (GMT -0400)
APRSWXNET | | Change Station
CLOSE
Current Station
Personal Weather Station
Location: Lynn, MA
Elevation: 26 ft
Nearby Weather Stations

Elev 26 ft 42.47 °N, 70.97 °W | Updated 22 minutes ago

Clear
Clear
85 °F
Feels Like 89 °F
N
6
Wind Variable Wind from ESE
Gusts 10.0 mph

Today
High -- | Low -- °F
--% Chance of Precip.
Yesterday
High -- | Low -- °F
Precip. -- in
6:10 AM 7:14 PM
Waning Gibbous, 68% visible
Pressure 29.83 in
Visibility 10.0 miles
Clouds Scattered Clouds 25000 ft
Heat Index 89 °F
Dew Point 69 °F
Humidity 58%
Rainfall in
Snow Depth Not available.
UV 6 out of 12
Pollen 8.60 out of 12
Air Quality Not available.
Flu Activity Not available.
METAR KBVY 031753Z 09007KT 10SM SCT250 29/19 A2985 RMK AO2 SLP101 T02890189 10294 20211 58006
Pressure 29.83 in
Visibility 10.0 miles
Clouds Scattered Clouds 25000 ft
Heat Index 89 °F
Dew Point 69 °F
Humidity 58%
Rainfall in
Snow Depth Not available.
UV 6 out of 12
Pollen 8.60 out of 12
Air Quality Not available.
Flu Activity Not available.
METAR KBVY 031753Z 09007KT 10SM SCT250 29/19 A2985 RMK AO2 SLP101 T02890189 10294 20211 58006

10-Day Weather Forecast

×

Almanac

Astronomy

Sep. 03, 2015 Rise Set
Actual Time
Civil Twilight
Nautical Twilight
Astronomical Twilight
Moon
Length of Visible Light
Length of Day
Tomorrow will be .
, % of the Moon is Illuminated

Today's Extremes

State Highs State Lows

Community

WunderPhotos

Upload Photos

1,851,999 photos uploaded!

WunderBlogs® & News

Nearby

Air Quality

  Air Quality AQ Index Pollutant
Not available.

Snow Depth

Station Depth Elevation

Earthquake Activity

City Distance Mag. Time & Date
Minimum magnitude displayed is 2.5.

Coastal Water Temperatures

Place Temperature

Stations

Nearby Weather Stations

Station Location Temp. Windchill Dew Point Humidity Wind Precip. Elev Updated Type